Time;durP1;ratioP1;P1;durP2;ratioP2;P2;SDS_P1;SDS_P2;PMS_P1;PMS_P2;Temp;Humidity;BMP_temperature;BMP_pressure;BME280_temperature;BME280_humidity;BME280_pressure;Samples;Min_cycle;Max_cycle;Signal;HPM_P1;HPM_P2
2021/04/28 00:00:46;;;;;;;3.30;3.10;;;10.40;63.70;;;;;;5070387;28;20207;-76
2021/04/28 00:03:12;;;;;;;3.60;3.30;;;10.40;64.20;;;;;;5070224;28;20215;-76
2021/04/28 00:05:39;;;;;;;4.03;3.53;;;10.40;63.80;;;;;;5070068;28;20297;-75
2021/04/28 00:08:07;;;;;;;4.20;3.20;;;10.40;63.70;;;;;;5070269;28;20226;-75
2021/04/28 00:10:37;;;;;;;3.37;3.17;;;10.40;63.50;;;;;;5070488;28;20277;-76
2021/04/28 00:13:05;;;;;;;3.67;3.37;;;10.40;63.90;;;;;;5070088;28;20227;-76
2021/04/28 00:15:33;;;;;;;3.83;3.50;;;10.40;64.30;;;;;;5070013;28;20208;-74
2021/04/28 00:18:00;;;;;;;4.33;3.43;;;10.30;64.00;;;;;;5069286;28;20246;-74
2021/04/28 00:20:26;;;;;;;5.37;3.63;;;10.30;64.10;;;;;;5069825;28;20207;-75
2021/04/28 00:22:52;;;;;;;5.13;3.70;;;10.30;64.20;;;;;;5069969;28;20210;-75
2021/04/28 00:25:21;;;;;;;4.80;3.23;;;10.20;64.90;;;;;;5069756;28;20256;-75
2021/04/28 00:27:48;;;;;;;3.60;2.93;;;10.20;65.10;;;;;;5069775;28;20204;-75
2021/04/28 00:30:17;;;;;;;5.60;3.60;;;10.10;65.80;;;;;;5069576;28;20207;-75
2021/04/28 00:32:43;;;;;;;4.23;3.57;;;10.00;66.30;;;;;;5069225;28;20666;-75
2021/04/28 00:35:13;;;;;;;3.83;3.23;;;10.00;66.50;;;;;;5069229;28;20208;-72
2021/04/28 00:37:40;;;;;;;4.30;3.87;;;10.00;66.70;;;;;;5069175;28;20692;-74
2021/04/28 00:40:07;;;;;;;4.47;4.07;;;9.90;66.70;;;;;;5068434;28;20787;-76
2021/04/28 00:42:34;;;;;;;3.93;3.63;;;9.90;66.60;;;;;;5069390;28;20211;-76
2021/04/28 00:45:03;;;;;;;4.00;3.70;;;10.00;66.50;;;;;;5069326;28;20214;-76
2021/04/28 00:47:29;;;;;;;7.30;3.53;;;9.90;66.60;;;;;;5069130;28;20530;-76
2021/04/28 00:49:55;;;;;;;4.10;3.70;;;10.00;67.00;;;;;;5069307;28;20550;-76
2021/04/28 00:52:22;;;;;;;3.60;3.30;;;10.00;67.30;;;;;;5069131;28;20208;-75
2021/04/28 00:54:48;;;;;;;5.80;3.80;;;9.90;66.60;;;;;;5068978;28;20262;-75
2021/04/28 00:57:15;;;;;;;3.63;3.33;;;9.80;66.70;;;;;;5068829;28;20203;-75
2021/04/28 00:59:41;;;;;;;4.10;3.70;;;9.80;67.00;;;;;;5069113;28;20203;-75
2021/04/28 01:02:08;;;;;;;5.87;3.50;;;9.80;67.00;;;;;;5069279;28;20204;-76
2021/04/28 01:04:35;;;;;;;4.07;3.67;;;9.80;67.00;;;;;;5069020;28;20908;-76
2021/04/28 01:07:05;;;;;;;4.93;4.13;;;9.70;67.20;;;;;;5069106;28;20235;-76
2021/04/28 01:09:31;;;;;;;3.87;3.47;;;9.70;67.60;;;;;;5069026;28;20204;-76
2021/04/28 01:11:57;;;;;;;3.90;3.60;;;9.50;67.40;;;;;;5068712;28;20204;-76
2021/04/28 01:14:24;;;;;;;4.30;3.90;;;9.60;67.00;;;;;;5060608;28;20263;-76
2021/04/28 01:16:50;;;;;;;3.60;3.30;;;9.60;67.20;;;;;;5048691;28;20240;-75
2021/04/28 01:19:18;;;;;;;4.87;3.83;;;9.60;67.30;;;;;;5048454;28;20219;-75
2021/04/28 01:21:45;;;;;;;3.90;3.60;;;9.50;67.80;;;;;;5048614;28;20698;-75
2021/04/28 01:24:13;;;;;;;4.10;3.70;;;9.50;68.00;;;;;;5048197;28;20600;-75
2021/04/28 01:26:40;;;;;;;4.53;4.10;;;9.40;67.60;;;;;;5048755;28;20581;-75
2021/04/28 01:29:07;;;;;;;4.37;3.40;;;9.40;68.00;;;;;;5048342;28;20691;-75
2021/04/28 01:31:34;;;;;;;4.70;4.00;;;9.30;67.80;;;;;;5048738;28;20212;-75
2021/04/28 01:34:03;;;;;;;3.43;3.13;;;9.20;69.20;;;;;;5048548;28;20228;-75
2021/04/28 01:36:37;;;;;;;4.10;3.70;;;9.10;68.80;;;;;;5048498;28;20207;-75
2021/04/28 01:39:07;;;;;;;5.93;3.93;;;9.00;69.20;;;;;;5048487;28;20196;-75
2021/04/28 01:41:38;;;;;;;5.20;4.53;;;9.00;70.00;;;;;;5048473;28;20208;-75
2021/04/28 01:44:06;;;;;;;4.87;3.80;;;9.10;69.20;;;;;;5048269;28;20192;-75
2021/04/28 01:46:32;;;;;;;4.93;3.70;;;9.00;69.30;;;;;;5048261;28;20201;-75
2021/04/28 01:49:00;;;;;;;4.53;4.13;;;9.00;69.70;;;;;;5048187;28;20208;-75
2021/04/28 01:51:26;;;;;;;4.23;3.90;;;9.00;70.00;;;;;;5047823;28;20204;-75
2021/04/28 01:53:53;;;;;;;5.13;3.73;;;9.00;70.00;;;;;;5048188;28;20267;-75
2021/04/28 01:56:22;;;;;;;4.23;3.90;;;9.00;69.50;;;;;;5048003;28;20227;-75
2021/04/28 01:58:51;;;;;;;4.20;3.80;;;9.00;69.70;;;;;;5048111;28;20212;-75
2021/04/28 02:01:19;;;;;;;4.53;4.03;;;8.90;69.60;;;;;;5048210;28;20576;-75
2021/04/28 02:03:45;;;;;;;4.83;3.70;;;8.90;69.80;;;;;;5048056;28;20215;-75
2021/04/28 02:06:12;;;;;;;4.93;3.87;;;8.90;69.70;;;;;;5048031;28;20346;-75
2021/04/28 02:08:38;;;;;;;4.23;3.83;;;9.10;70.00;;;;;;5048122;28;20280;-77
2021/04/28 02:11:04;;;;;;;4.20;3.80;;;8.90;70.30;;;;;;5048221;28;20208;-77
2021/04/28 02:13:33;;;;;;;4.27;3.87;;;8.80;70.90;;;;;;5048286;28;20353;-77
2021/04/28 02:16:01;;;;;;;5.47;3.83;;;8.80;70.50;;;;;;5048111;28;20222;-78
2021/04/28 02:18:28;;;;;;;4.20;3.90;;;8.90;70.00;;;;;;5048321;28;20200;-78
2021/04/28 02:20:55;;;;;;;4.80;4.37;;;8.80;70.20;;;;;;5048319;28;20211;-78
2021/04/28 02:23:22;;;;;;;5.93;4.10;;;8.80;70.30;;;;;;5048161;28;20674;-76
2021/04/28 02:25:48;;;;;;;7.23;3.93;;;8.90;70.00;;;;;;5048166;28;20200;-76
2021/04/28 02:28:14;;;;;;;4.40;4.00;;;8.90;69.90;;;;;;5048140;28;20207;-76
2021/04/28 02:30:40;;;;;;;5.23;3.67;;;8.70;70.60;;;;;;5048096;28;20270;-76
2021/04/28 02:33:08;;;;;;;4.70;4.30;;;8.60;70.80;;;;;;5047687;28;20261;-74
2021/04/28 02:35:34;;;;;;;4.80;3.97;;;8.50;71.00;;;;;;5047821;28;20543;-73
2021/04/28 02:38:04;;;;;;;5.53;4.10;;;8.60;71.30;;;;;;5047358;28;20675;-73
2021/04/28 02:40:31;;;;;;;5.50;4.27;;;8.50;71.20;;;;;;5048005;28;20205;-73
2021/04/28 02:42:57;;;;;;;4.93;4.20;;;8.30;71.50;;;;;;5047777;28;20262;-73
2021/04/28 02:45:25;;;;;;;4.63;4.20;;;8.30;71.90;;;;;;5047740;28;20208;-73
2021/04/28 02:47:53;;;;;;;6.97;4.53;;;8.20;72.20;;;;;;5047626;28;20235;-73
2021/04/28 02:50:22;;;;;;;4.73;4.00;;;8.30;72.20;;;;;;5047604;28;20212;-73
2021/04/28 02:52:51;;;;;;;4.90;4.40;;;8.30;72.30;;;;;;5047774;28;20211;-72
2021/04/28 02:55:17;;;;;;;4.87;4.37;;;8.30;72.10;;;;;;5047655;28;20236;-73
2021/04/28 02:57:46;;;;;;;4.67;4.13;;;8.30;72.10;;;;;;5047668;28;20227;-73
2021/04/28 03:00:16;;;;;;;4.87;4.47;;;8.30;72.40;;;;;;5047167;28;20555;-73
2021/04/28 03:02:43;;;;;;;4.43;4.03;;;8.40;72.30;;;;;;5047119;28;20780;-74
2021/04/28 03:05:13;;;;;;;4.60;4.10;;;8.50;72.30;;;;;;5055492;28;20423;-73
2021/04/28 03:07:40;;;;;;;5.03;4.53;;;8.50;72.50;;;;;;5059338;28;20202;-70
2021/04/28 03:10:07;;;;;;;6.33;5.00;;;8.40;72.30;;;;;;5071231;28;20204;-75
2021/04/28 03:12:34;;;;;;;6.67;4.70;;;8.40;72.20;;;;;;5068862;28;20292;-75
2021/04/28 03:15:01;;;;;;;6.20;5.00;;;8.30;72.30;;;;;;5068873;28;20278;-75
2021/04/28 03:17:27;;;;;;;5.23;4.20;;;8.30;72.80;;;;;;5048734;28;20244;-74
2021/04/28 03:19:56;;;;;;;8.60;4.43;;;8.30;73.50;;;;;;5048976;28;20231;-75
2021/04/28 03:22:22;;;;;;;5.30;4.80;;;8.30;72.70;;;;;;5048938;28;20265;-75
2021/04/28 03:24:50;;;;;;;5.10;4.60;;;8.20;72.70;;;;;;5048474;28;20204;-75
2021/04/28 03:27:18;;;;;;;5.93;4.63;;;8.10;73.20;;;;;;5048117;28;20393;-72
2021/04/28 03:29:45;;;;;;;5.43;4.93;;;8.10;73.70;;;;;;5068167;28;20322;-72
2021/04/28 03:32:11;;;;;;;7.03;5.17;;;8.10;73.70;;;;;;5068461;28;20204;-79
2021/04/28 03:34:37;;;;;;;5.83;5.10;;;8.10;73.90;;;;;;5068328;28;20710;-75
2021/04/28 03:37:04;;;;;;;6.23;4.77;;;8.10;73.00;;;;;;5068561;28;20316;-75
2021/04/28 03:39:31;;;;;;;6.53;4.90;;;7.90;73.30;;;;;;5068297;28;20674;-75
2021/04/28 03:41:58;;;;;;;7.90;5.20;;;8.00;73.60;;;;;;5069049;28;20218;-75
2021/04/28 03:44:24;;;;;;;7.73;5.57;;;8.00;73.30;;;;;;5068708;28;20203;-76
2021/04/28 03:46:50;;;;;;;5.33;4.67;;;7.90;73.20;;;;;;5069066;28;20235;-76
2021/04/28 03:49:16;;;;;;;8.23;5.40;;;7.90;73.70;;;;;;5068243;28;20381;-76
2021/04/28 03:51:43;;;;;;;8.60;5.07;;;7.90;73.70;;;;;;5069229;28;20218;-75
2021/04/28 03:54:10;;;;;;;5.23;4.70;;;8.00;73.90;;;;;;5068368;28;20693;-75
2021/04/28 03:56:36;;;;;;;8.40;5.43;;;8.10;74.00;;;;;;5068542;28;20290;-75
2021/04/28 03:59:04;;;;;;;6.47;5.23;;;8.00;74.10;;;;;;5061110;28;20200;-75
2021/04/28 04:01:31;;;;;;;7.13;5.33;;;7.80;74.10;;;;;;5057717;28;20231;-76
2021/04/28 04:03:57;;;;;;;6.40;5.23;;;7.90;74.40;;;;;;5078512;28;20239;-76
2021/04/28 04:06:23;;;;;;;6.10;5.13;;;7.80;74.40;;;;;;5078023;28;20751;-76
2021/04/28 04:08:49;;;;;;;6.23;5.07;;;7.90;74.40;;;;;;5077311;28;20210;-76
2021/04/28 04:11:15;;;;;;;6.07;5.30;;;7.90;74.50;;;;;;5077861;28;20227;-76
2021/04/28 04:13:41;;;;;;;6.37;5.10;;;7.90;74.60;;;;;;5078947;28;20257;-76
2021/04/28 04:16:09;;;;;;;5.73;5.23;;;7.70;74.90;;;;;;5078509;28;20195;-76
2021/04/28 04:18:35;;;;;;;8.67;5.23;;;7.70;75.00;;;;;;5076785;28;20227;-76
2021/04/28 04:21:01;;;;;;;5.67;5.13;;;7.80;74.90;;;;;;5075553;28;20204;-76
2021/04/28 04:23:27;;;;;;;5.97;5.37;;;7.70;75.00;;;;;;5078546;28;20212;-76
2021/04/28 04:25:53;;;;;;;6.20;5.20;;;7.80;75.20;;;;;;5069582;28;20605;-76
2021/04/28 04:28:19;;;;;;;7.73;5.67;;;7.70;75.30;;;;;;5077559;28;20645;-76
2021/04/28 04:30:47;;;;;;;7.57;5.63;;;7.80;75.00;;;;;;5078173;28;20567;-76
2021/04/28 04:33:16;;;;;;;6.60;5.60;;;7.90;75.00;;;;;;5077080;28;20195;-76
2021/04/28 04:35:44;;;;;;;7.80;5.60;;;7.90;75.10;;;;;;5074671;28;20210;-76
2021/04/28 04:38:10;;;;;;;8.63;5.70;;;8.00;75.30;;;;;;5076528;28;20195;-76
2021/04/28 04:40:36;;;;;;;7.77;5.73;;;8.00;75.10;;;;;;5075274;28;20207;-76
2021/04/28 04:43:02;;;;;;;6.43;5.37;;;8.00;75.80;;;;;;5072906;28;20662;-76
2021/04/28 04:45:29;;;;;;;8.43;5.37;;;7.90;75.30;;;;;;5075607;28;20198;-77
2021/04/28 04:47:55;;;;;;;8.40;5.50;;;8.00;75.50;;;;;;5068685;28;20637;-77
2021/04/28 04:50:22;;;;;;;6.20;5.20;;;8.10;75.10;;;;;;5069706;28;20203;-77
2021/04/28 04:52:48;;;;;;;6.53;5.50;;;8.10;74.70;;;;;;5068164;28;20208;-77
2021/04/28 04:55:14;;;;;;;8.00;5.90;;;8.10;74.90;;;;;;5070544;28;20231;-77
2021/04/28 04:57:40;;;;;;;7.00;5.60;;;8.10;75.00;;;;;;5078099;28;20199;-77
2021/04/28 05:00:08;;;;;;;7.57;5.47;;;8.10;75.80;;;;;;5077386;28;20203;-76
2021/04/28 05:02:34;;;;;;;7.50;6.10;;;8.10;76.00;;;;;;5073606;28;20723;-77
2021/04/28 05:05:00;;;;;;;6.50;5.60;;;8.10;75.10;;;;;;5076346;28;20232;-76
2021/04/28 05:07:27;;;;;;;6.73;5.83;;;8.20;75.10;;;;;;5073560;28;20575;-77
2021/04/28 05:09:53;;;;;;;6.87;5.43;;;8.20;75.00;;;;;;5076853;28;20196;-78
2021/04/28 05:12:19;;;;;;;8.13;5.60;;;8.10;74.90;;;;;;5073877;28;20668;-76
2021/04/28 05:14:45;;;;;;;7.50;5.70;;;8.10;75.50;;;;;;5079334;28;20224;-76
2021/04/28 05:17:11;;;;;;;6.87;5.80;;;8.10;75.30;;;;;;5073136;28;20253;-76
2021/04/28 05:19:38;;;;;;;6.73;5.73;;;8.10;75.50;;;;;;5066453;28;20266;-76
2021/04/28 05:22:04;;;;;;;7.40;5.97;;;8.20;75.20;;;;;;5074813;28;20217;-76
2021/04/28 05:24:31;;;;;;;6.10;5.50;;;8.20;75.10;;;;;;5073306;28;20207;-77
2021/04/28 05:26:57;;;;;;;11.33;6.07;;;8.30;74.70;;;;;;5079699;28;20637;-77
2021/04/28 05:29:23;;;;;;;9.20;6.10;;;8.30;75.70;;;;;;5077300;28;20261;-76
2021/04/28 05:31:49;;;;;;;10.33;6.27;;;8.40;75.10;;;;;;5076262;28;20212;-74
2021/04/28 05:34:15;;;;;;;6.40;5.77;;;8.30;75.10;;;;;;5083994;28;20225;-75
2021/04/28 05:36:41;;;;;;;12.73;6.70;;;8.40;76.00;;;;;;5071562;28;20200;-77
2021/04/28 05:39:07;;;;;;;9.57;6.20;;;8.50;76.00;;;;;;5067894;28;20210;-77
2021/04/28 05:41:34;;;;;;;7.73;6.10;;;8.50;75.20;;;;;;5076266;28;20203;-77
2021/04/28 05:44:01;;;;;;;8.13;6.10;;;8.50;75.10;;;;;;5075879;28;20199;-77
2021/04/28 05:46:27;;;;;;;9.43;6.63;;;8.60;75.20;;;;;;5077587;28;20271;-77
2021/04/28 05:48:53;;;;;;;8.43;6.47;;;8.60;74.70;;;;;;5079284;28;20200;-77
2021/04/28 05:51:19;;;;;;;9.17;6.23;;;8.60;74.40;;;;;;5072069;28;20200;-77
2021/04/28 05:53:45;;;;;;;10.07;6.30;;;8.60;74.10;;;;;;5075673;28;20266;-77
2021/04/28 05:56:11;;;;;;;8.17;6.27;;;8.60;74.30;;;;;;5072135;28;20248;-77
2021/04/28 05:58:38;;;;;;;9.07;6.27;;;8.70;74.30;;;;;;5075613;28;20214;-77
2021/04/28 06:01:05;;;;;;;10.70;6.17;;;8.70;74.80;;;;;;5072968;28;20696;-77
2021/04/28 06:03:31;;;;;;;12.67;6.50;;;8.70;75.10;;;;;;5061864;28;20200;-77
2021/04/28 06:05:57;;;;;;;11.33;7.03;;;8.80;74.90;;;;;;5079757;28;20242;-77
2021/04/28 06:08:23;;;;;;;10.93;6.60;;;8.80;75.30;;;;;;5073331;28;20204;-77
2021/04/28 06:10:49;;;;;;;9.63;6.80;;;8.80;75.00;;;;;;5075744;28;20203;-77
2021/04/28 06:13:15;;;;;;;7.67;6.87;;;8.70;75.10;;;;;;5073543;28;20202;-77
2021/04/28 06:15:42;;;;;;;8.07;6.70;;;8.80;75.40;;;;;;5080001;28;20273;-77
2021/04/28 06:18:08;;;;;;;7.73;6.53;;;8.80;75.00;;;;;;5075294;28;20230;-77
2021/04/28 06:20:35;;;;;;;7.97;6.53;;;8.90;74.50;;;;;;5079011;28;20685;-77
2021/04/28 06:23:03;;;;;;;9.27;7.40;;;8.80;74.90;;;;;;5079029;28;20202;-77
2021/04/28 06:25:29;;;;;;;10.33;7.40;;;8.80;75.20;;;;;;5076023;28;20202;-77
2021/04/28 06:27:55;;;;;;;46.10;9.13;;;8.90;74.70;;;;;;5077474;28;20195;-77
2021/04/28 06:30:21;;;;;;;8.87;6.60;;;8.90;74.70;;;;;;5078216;28;20199;-77
2021/04/28 06:32:49;;;;;;;7.63;6.83;;;9.00;75.40;;;;;;5080958;28;20210;-77
2021/04/28 06:35:16;;;;;;;10.30;7.53;;;9.00;74.50;;;;;;5075899;28;20305;-77
2021/04/28 06:37:43;;;;;;;8.90;6.53;;;9.10;75.10;;;;;;5087858;28;20206;-77
2021/04/28 06:40:10;;;;;;;9.73;7.13;;;9.10;75.80;;;;;;5091111;28;20256;-77
2021/04/28 06:42:36;;;;;;;7.30;6.53;;;9.20;75.70;;;;;;5092184;28;20211;-77
2021/04/28 06:45:04;;;;;;;13.17;7.07;;;9.30;76.00;;;;;;5092052;28;20206;-77
2021/04/28 06:47:30;;;;;;;11.83;7.27;;;9.30;75.90;;;;;;5091943;28;20219;-77
2021/04/28 06:49:57;;;;;;;12.10;7.20;;;9.40;76.10;;;;;;5091755;28;20202;-77
2021/04/28 06:52:23;;;;;;;9.53;7.00;;;9.50;76.00;;;;;;5091781;28;20564;-77
2021/04/28 06:54:49;;;;;;;12.80;7.67;;;9.60;76.20;;;;;;5091788;28;20230;-77
2021/04/28 06:57:16;;;;;;;10.43;7.60;;;9.70;75.90;;;;;;5091796;28;20606;-77
2021/04/28 06:59:42;;;;;;;11.03;7.37;;;9.90;75.50;;;;;;5091519;28;20662;-77
2021/04/28 07:02:08;;;;;;;7.80;6.67;;;9.90;75.10;;;;;;5091555;28;20241;-77
2021/04/28 07:04:35;;;;;;;11.70;7.87;;;10.00;74.20;;;;;;5091594;28;20246;-77
2021/04/28 07:07:01;;;;;;;10.13;7.60;;;10.10;74.60;;;;;;5091740;28;20206;-77
2021/04/28 07:09:28;;;;;;;8.07;6.83;;;10.30;75.60;;;;;;5091587;28;20207;-77
2021/04/28 07:11:54;;;;;;;12.43;7.83;;;10.30;74.60;;;;;;5071346;28;20211;-77
2021/04/28 07:14:20;;;;;;;15.40;7.70;;;10.40;74.20;;;;;;5071129;28;20238;-77
2021/04/28 07:16:46;;;;;;;10.70;7.47;;;10.60;73.90;;;;;;5070783;28;20246;-77
2021/04/28 07:19:12;;;;;;;10.67;7.77;;;10.60;73.50;;;;;;5070560;28;20252;-77
2021/04/28 07:21:39;;;;;;;9.23;7.67;;;10.60;73.00;;;;;;5071087;28;20210;-77
2021/04/28 07:24:06;;;;;;;11.17;7.33;;;10.70;73.20;;;;;;5070784;28;20674;-77
2021/04/28 07:26:33;;;;;;;11.40;7.63;;;10.80;73.30;;;;;;5066006;28;20211;-77
2021/04/28 07:29:00;;;;;;;21.17;7.67;;;10.80;73.20;;;;;;5050913;28;20204;-76
2021/04/28 07:31:26;;;;;;;9.47;6.83;;;10.80;74.00;;;;;;5050914;28;20208;-76
2021/04/28 07:33:53;;;;;;;8.73;7.00;;;10.90;74.00;;;;;;5050141;28;20239;-77
2021/04/28 07:36:19;;;;;;;14.77;7.43;;;10.80;72.80;;;;;;5068860;28;20203;-76
2021/04/28 07:38:45;;;;;;;13.10;7.30;;;10.90;72.60;;;;;;5071602;28;20222;-75
2021/04/28 07:41:12;;;;;;;9.57;7.27;;;10.90;72.60;;;;;;5075268;28;20196;-75
2021/04/28 07:43:38;;;;;;;13.57;7.53;;;10.90;73.00;;;;;;5076738;28;20253;-76
2021/04/28 07:46:05;;;;;;;9.27;7.40;;;11.00;73.40;;;;;;5077683;28;20203;-76
2021/04/28 07:48:31;;;;;;;10.93;7.37;;;11.00;73.80;;;;;;5077722;28;20202;-77
2021/04/28 07:51:00;;;;;;;10.03;7.63;;;11.10;72.90;;;;;;5077875;28;20239;-76
2021/04/28 07:53:26;;;;;;;11.47;7.10;;;11.10;71.70;;;;;;5079314;28;20244;-77
2021/04/28 07:55:52;;;;;;;12.23;7.70;;;11.10;71.10;;;;;;5077397;28;20707;-76
2021/04/28 07:58:20;;;;;;;11.00;8.13;;;11.10;72.50;;;;;;5082924;28;20198;-76
2021/04/28 08:00:46;;;;;;;9.80;7.40;;;11.20;72.50;;;;;;5075352;28;21045;-77
2021/04/28 08:03:12;;;;;;;11.57;8.03;;;11.20;72.10;;;;;;5083131;28;20580;-76
2021/04/28 08:05:38;;;;;;;14.33;7.97;;;11.30;71.80;;;;;;5077981;28;20233;-75
2021/04/28 08:08:05;;;;;;;10.77;7.50;;;11.30;72.00;;;;;;5089483;28;20206;-76
2021/04/28 08:10:32;;;;;;;10.33;7.60;;;11.40;72.40;;;;;;5090175;28;20225;-76
2021/04/28 08:12:59;;;;;;;11.10;7.07;;;11.50;72.10;;;;;;5090076;28;20218;-76
2021/04/28 08:15:26;;;;;;;10.20;7.40;;;11.50;72.00;;;;;;5090167;28;20704;-76
2021/04/28 08:17:53;;;;;;;12.40;7.90;;;11.60;70.70;;;;;;5089778;28;20239;-76
2021/04/28 08:20:19;;;;;;;10.03;8.57;;;11.60;70.20;;;;;;5090094;28;20229;-76
2021/04/28 08:22:46;;;;;;;13.70;7.70;;;11.60;69.80;;;;;;5090044;28;20256;-76
2021/04/28 08:25:16;;;;;;;14.97;8.00;;;11.70;70.00;;;;;;5089760;28;20812;-76
2021/04/28 08:27:42;;;;;;;10.70;8.03;;;11.80;71.20;;;;;;5090103;28;20198;-76
2021/04/28 08:30:11;;;;;;;9.13;7.47;;;11.90;71.30;;;;;;5089760;28;20211;-75
2021/04/28 08:32:38;;;;;;;11.10;7.67;;;12.00;71.60;;;;;;5089777;28;20665;-76
2021/04/28 08:35:06;;;;;;;11.43;7.20;;;12.10;70.60;;;;;;5089745;28;20238;-76
2021/04/28 08:37:32;;;;;;;9.37;7.30;;;12.20;70.10;;;;;;5090044;28;20299;-76
2021/04/28 08:39:59;;;;;;;10.57;7.63;;;12.20;70.00;;;;;;5089948;28;20261;-76
2021/04/28 08:42:25;;;;;;;13.90;7.43;;;12.30;70.00;;;;;;5089828;28;20207;-76
2021/04/28 08:44:52;;;;;;;10.73;8.43;;;12.40;71.10;;;;;;5089803;28;20210;-76
2021/04/28 08:47:20;;;;;;;11.90;7.70;;;12.60;69.80;;;;;;5089550;28;20262;-75
2021/04/28 08:49:47;;;;;;;13.10;7.87;;;12.60;70.30;;;;;;5089614;28;20551;-75
2021/04/28 08:52:14;;;;;;;12.80;8.13;;;12.80;69.30;;;;;;5069989;28;20694;-75
2021/04/28 08:54:40;;;;;;;9.60;7.80;;;12.90;69.80;;;;;;5068821;28;20227;-77
2021/04/28 08:57:07;;;;;;;11.10;7.63;;;12.90;69.30;;;;;;5069370;28;20230;-77
2021/04/28 08:59:33;;;;;;;12.13;8.13;;;13.00;68.80;;;;;;5069280;28;20203;-78
2021/04/28 09:02:12;;;;;;;13.77;7.63;;;13.10;68.70;;;;;;5068549;28;20214;-78
2021/04/28 09:04:38;;;;;;;7.90;7.10;;;13.10;67.10;;;;;;5068951;28;20658;-77
2021/04/28 09:07:05;;;;;;;8.73;7.63;;;13.10;65.70;;;;;;5069364;28;20208;-78
2021/04/28 09:09:32;;;;;;;12.03;7.47;;;13.10;66.60;;;;;;5069216;28;20214;-78
2021/04/28 09:11:59;;;;;;;9.73;6.93;;;13.10;66.30;;;;;;5069167;28;20211;-78
2021/04/28 09:14:26;;;;;;;12.47;7.47;;;13.30;66.70;;;;;;5068469;28;20246;-76
2021/04/28 09:17:01;;;;;;;10.13;7.50;;;13.30;65.40;;;;;;5065156;28;20232;-76
2021/04/28 09:19:31;;;;;;;9.80;7.20;;;13.30;66.00;;;;;;5048364;28;20697;-77
2021/04/28 09:22:00;;;;;;;8.87;6.77;;;13.50;66.50;;;;;;5048296;28;20804;-77
2021/04/28 09:24:30;;;;;;;8.87;7.47;;;13.60;64.80;;;;;;5048744;28;20251;-76
2021/04/28 09:26:57;;;;;;;8.60;6.60;;;13.80;65.70;;;;;;5048540;28;20208;-76
2021/04/28 09:29:27;;;;;;;10.60;7.20;;;13.90;66.10;;;;;;5048458;28;20235;-76
2021/04/28 09:31:55;;;;;;;7.43;6.73;;;14.10;64.30;;;;;;5071246;28;20678;-76
2021/04/28 09:34:29;;;;;;;11.43;7.33;;;14.10;64.20;;;;;;5076421;28;20223;-76
2021/04/28 09:37:03;;;;;;;9.23;6.97;;;14.10;63.50;;;;;;5061578;28;20203;-76
2021/04/28 09:39:30;;;;;;;8.03;7.17;;;14.10;64.00;;;;;;5077257;28;20665;-76
2021/04/28 09:41:57;;;;;;;8.27;7.40;;;14.20;64.00;;;;;;5079852;28;20211;-76
2021/04/28 09:44:28;;;;;;;11.57;7.33;;;14.30;62.30;;;;;;5073862;28;20826;-77
2021/04/28 09:46:56;;;;;;;11.00;8.13;;;14.30;61.80;;;;;;5071255;28;20263;-76
2021/04/28 09:49:23;;;;;;;8.53;7.73;;;14.30;62.50;;;;;;5079058;28;20233;-76
2021/04/28 09:51:54;;;;;;;8.93;8.03;;;14.30;61.70;;;;;;5080190;28;20566;-76
2021/04/28 09:54:27;;;;;;;14.80;8.37;;;14.30;62.30;;;;;;5071338;28;20332;-75
2021/04/28 09:56:55;;;;;;;12.23;8.67;;;14.40;65.00;;;;;;5066738;28;20274;-76
2021/04/28 09:59:21;;;;;;;8.77;7.63;;;14.50;66.00;;;;;;5083226;28;20195;-77
2021/04/28 10:01:47;;;;;;;12.03;8.03;;;14.60;65.30;;;;;;5074948;28;20244;-77
2021/04/28 10:04:27;;;;;;;9.73;8.57;;;14.60;62.90;;;;;;5070440;28;20209;-77
2021/04/28 10:06:53;;;;;;;12.57;8.90;;;14.70;63.00;;;;;;5080498;28;20620;-77
2021/04/28 10:09:27;;;;;;;15.87;8.90;;;14.80;64.00;;;;;;5070033;28;20597;-76
2021/04/28 10:11:54;;;;;;;11.37;8.77;;;15.00;64.70;;;;;;5072752;28;20653;-77
2021/04/28 10:14:21;;;;;;;14.33;8.80;;;15.10;63.50;;;;;;5069636;28;20238;-77
2021/04/28 10:16:48;;;;;;;14.37;9.37;;;15.20;64.10;;;;;;5074531;28;20235;-78
2021/04/28 10:19:16;;;;;;;17.97;9.37;;;15.30;63.20;;;;;;5086760;28;20200;-77
2021/04/28 10:21:43;;;;;;;13.60;9.57;;;15.40;62.50;;;;;;5080214;28;20198;-77
2021/04/28 10:24:10;;;;;;;14.10;10.43;;;15.40;62.50;;;;;;5078918;28;20631;-77
2021/04/28 10:26:37;;;;;;;14.37;10.47;;;15.50;61.90;;;;;;5071349;28;20554;-77
2021/04/28 10:29:07;;;;;;;14.23;9.60;;;15.50;61.70;;;;;;5091501;28;20206;-77
2021/04/28 10:31:35;;;;;;;12.87;10.00;;;15.60;61.80;;;;;;5075785;28;20191;-77
2021/04/28 10:34:03;;;;;;;17.23;10.20;;;15.60;62.10;;;;;;5082760;28;20199;-77
2021/04/28 10:36:30;;;;;;;12.33;9.20;;;15.80;62.80;;;;;;5082871;28;20226;-77
2021/04/28 10:38:56;;;;;;;27.13;10.83;;;15.90;62.10;;;;;;5077743;28;20200;-77
2021/04/28 10:41:36;;;;;;;13.87;9.40;;;15.90;62.00;;;;;;5078850;28;20272;-77
2021/04/28 10:44:02;;;;;;;11.57;9.50;;;16.00;63.50;;;;;;5075686;28;20188;-77
2021/04/28 10:46:29;;;;;;;22.17;10.07;;;16.20;63.80;;;;;;5083238;28;20230;-77
2021/04/28 10:48:55;;;;;;;11.87;8.93;;;16.30;65.20;;;;;;5081831;28;20197;-77
2021/04/28 10:51:35;;;;;;;12.20;9.63;;;16.50;64.20;;;;;;5082002;28;20202;-77
2021/04/28 10:54:23;;;;;;;12.57;9.10;;;16.50;62.70;;;;;;5079006;28;20191;-76
2021/04/28 10:57:00;;;;;;;13.10;10.10;;;16.50;64.20;;;;;;5071001;28;20674;-76
2021/04/28 10:59:34;;;;;;;13.90;10.17;;;16.60;64.60;;;;;;5072764;28;20206;-77
2021/04/28 11:02:08;;;;;;;13.40;8.83;;;16.60;63.50;;;;;;5081577;28;20195;-77
2021/04/28 11:04:35;;;;;;;20.20;10.10;;;16.80;65.10;;;;;;5079083;28;20198;-77
2021/04/28 11:07:01;;;;;;;12.37;9.87;;;16.80;63.20;;;;;;5079804;28;20203;-77
2021/04/28 11:09:28;;;;;;;14.00;9.70;;;16.90;63.30;;;;;;5081970;28;20198;-77
2021/04/28 11:12:00;;;;;;;16.73;9.20;;;17.00;62.00;;;;;;5071445;28;20208;-77
2021/04/28 11:14:46;;;;;;;10.53;8.83;;;17.10;61.80;;;;;;5075967;28;20214;-77
2021/04/28 11:17:26;;;;;;;9.83;8.67;;;17.20;62.40;;;;;;5081056;28;20772;-77
2021/04/28 11:19:55;;;;;;;13.53;9.30;;;17.30;61.90;;;;;;5078533;28;20196;-77
2021/04/28 11:22:30;;;;;;;14.63;8.63;;;17.10;61.80;;;;;;5076458;28;20209;-76
2021/04/28 11:25:04;;;;;;;13.27;7.90;;;16.90;63.00;;;;;;5078594;28;20190;-75
2021/04/28 11:27:58;;;;;;;9.80;7.63;;;16.80;63.50;;;;;;5078057;28;20199;-76
2021/04/28 11:30:41;;;;;;;12.60;8.27;;;16.80;63.00;;;;;;5060127;28;20228;-77
2021/04/28 11:33:39;;;;;;;10.80;8.50;;;16.90;63.20;;;;;;5079928;28;20616;-77
2021/04/28 11:36:11;;;;;;;10.10;8.37;;;17.20;62.60;;;;;;5075385;28;20214;-77
2021/04/28 11:38:39;;;;;;;9.47;8.23;;;17.30;61.70;;;;;;5080925;28;20195;-76
2021/04/28 11:41:09;;;;;;;9.33;7.50;;;17.50;60.50;;;;;;5078451;28;20201;-77
2021/04/28 11:43:37;;;;;;;9.37;7.23;;;17.70;59.90;;;;;;5079741;28;20566;-77
2021/04/28 11:46:05;;;;;;;9.43;7.97;;;17.80;59.10;;;;;;5078559;28;20223;-77
2021/04/28 11:48:33;;;;;;;9.60;8.17;;;18.00;59.80;;;;;;5079459;28;20589;-76
2021/04/28 11:51:01;;;;;;;9.93;8.03;;;18.00;59.10;;;;;;5080457;28;20252;-77
2021/04/28 11:53:29;;;;;;;11.27;7.90;;;18.10;60.40;;;;;;5079510;28;20748;-78
2021/04/28 11:55:55;;;;;;;12.70;8.30;;;18.20;61.50;;;;;;5079561;28;20330;-78
2021/04/28 11:58:24;;;;;;;9.27;8.27;;;18.40;60.50;;;;;;5080186;28;20888;-78
2021/04/28 12:00:59;;;;;;;14.23;9.17;;;18.60;60.60;;;;;;5076313;28;20203;-77
2021/04/28 12:03:25;;;;;;;13.00;9.03;;;18.60;59.30;;;;;;5073179;28;20183;-78
2021/04/28 12:05:52;;;;;;;10.83;8.37;;;18.70;59.60;;;;;;5070415;28;20204;-78
2021/04/28 12:08:18;;;;;;;9.03;8.13;;;18.60;63.20;;;;;;5077613;28;20222;-77
2021/04/28 12:10:50;;;;;;;11.07;8.13;;;18.50;60.30;;;;;;5074984;28;20206;-78
2021/04/28 12:13:17;;;;;;;8.03;7.23;;;18.30;60.20;;;;;;5077702;28;20197;-78
2021/04/28 12:15:51;;;;;;;11.70;8.53;;;18.40;62.40;;;;;;5079583;28;20250;-77
2021/04/28 12:18:29;;;;;;;16.43;8.53;;;18.70;62.30;;;;;;5079342;28;20231;-78
2021/04/28 12:21:00;;;;;;;8.40;7.60;;;18.90;61.70;;;;;;5077988;28;20187;-78
2021/04/28 12:23:26;;;;;;;8.63;7.83;;;19.00;61.80;;;;;;5077212;28;20203;-77
2021/04/28 12:25:53;;;;;;;11.03;7.67;;;19.00;61.50;;;;;;5064945;28;20200;-78
2021/04/28 12:28:19;;;;;;;8.60;7.70;;;19.10;62.40;;;;;;5079753;28;20206;-78
2021/04/28 12:30:49;;;;;;;8.20;7.43;;;19.30;62.40;;;;;;5077545;28;20208;-78
2021/04/28 12:33:16;;;;;;;7.20;6.47;;;19.20;59.70;;;;;;5077605;28;20202;-78
2021/04/28 12:35:42;;;;;;;11.20;8.00;;;19.20;60.90;;;;;;5075593;28;20227;-77
2021/04/28 12:38:11;;;;;;;11.13;7.83;;;19.30;59.00;;;;;;5060796;28;20209;-78
2021/04/28 12:40:40;;;;;;;8.80;7.90;;;19.40;60.40;;;;;;5064367;28;20309;-78
2021/04/28 12:43:10;;;;;;;10.30;6.97;;;19.60;59.20;;;;;;5072980;28;20206;-78
2021/04/28 12:45:37;;;;;;;9.30;6.73;;;19.80;60.10;;;;;;5073825;28;20211;-80
2021/04/28 12:48:08;;;;;;;7.83;7.10;;;19.90;59.50;;;;;;5076116;28;21012;-78
2021/04/28 12:50:36;;;;;;;7.82;7.05;;;20.00;58.80;;;;;;5078102;28;20226;-78